sensor_id;sensor_type;location;lat;lon;timestamp;pressure;altitude;pressure_sealevel;temperature;humidity
44213;BME280;29882;46.356;17.798;2022-07-22T11:05:27;99982.50;;;33.71;29.65
44213;BME280;29882;46.356;17.798;2022-07-22T11:07:57;99977.53;;;33.68;29.54
44213;BME280;29882;46.356;17.798;2022-07-22T11:10:24;99970.78;;;33.69;28.59
44213;BME280;29882;46.356;17.798;2022-07-22T11:12:51;99976.66;;;33.81;29.43
44213;BME280;29882;46.356;17.798;2022-07-22T11:15:25;99975.31;;;33.92;28.83
44213;BME280;29882;46.356;17.798;2022-07-22T11:17:56;99977.16;;;34.19;29.09
44213;BME280;29882;46.356;17.798;2022-07-22T11:20:24;99969.09;;;34.18;29.55
44213;BME280;29882;46.356;17.798;2022-07-22T11:22:51;99973.34;;;34.15;29.11
44213;BME280;29882;46.356;17.798;2022-07-22T11:25:25;99966.97;;;34.23;29.21
44213;BME280;29882;46.356;17.798;2022-07-22T11:27:53;99973.13;;;34.34;27.72
44213;BME280;29882;46.356;17.798;2022-07-22T11:30:20;99964.69;;;34.48;27.92
44213;BME280;29882;46.356;17.798;2022-07-22T11:32:47;99957.13;;;34.48;27.18
44213;BME280;29882;46.356;17.798;2022-07-22T11:35:15;99960.97;;;34.61;27.19
44213;BME280;29882;46.356;17.798;2022-07-22T11:37:42;99958.19;;;34.61;27.62
44213;BME280;29882;46.356;17.798;2022-07-22T11:40:10;99947.06;;;34.78;28.06
44213;BME280;29882;46.356;17.798;2022-07-22T11:42:37;99948.47;;;34.98;28.26
44213;BME280;29882;46.356;17.798;2022-07-22T11:45:05;99945.22;;;35.22;28.32
44213;BME280;29882;46.356;17.798;2022-07-22T11:47:32;99948.06;;;35.39;28.06
44213;BME280;29882;46.356;17.798;2022-07-22T11:49:59;99948.78;;;35.79;26.80
44213;BME280;29882;46.356;17.798;2022-07-22T11:52:27;99952.41;;;35.71;27.42
44213;BME280;29882;46.356;17.798;2022-07-22T11:54:54;99941.66;;;35.82;27.05
44213;BME280;29882;46.356;17.798;2022-07-22T11:57:21;99947.78;;;36.01;26.97
44213;BME280;29882;46.356;17.798;2022-07-22T11:59:48;99937.03;;;36.12;26.48
44213;BME280;29882;46.356;17.798;2022-07-22T12:02:15;99941.81;;;36.20;25.85
44213;BME280;29882;46.356;17.798;2022-07-22T12:04:45;99938.31;;;36.32;25.53
44213;BME280;29882;46.356;17.798;2022-07-22T12:07:14;99929.88;;;36.49;25.54
44213;BME280;29882;46.356;17.798;2022-07-22T12:09:43;99933.97;;;36.60;25.40
44213;BME280;29882;46.356;17.798;2022-07-22T12:12:12;99925.13;;;36.88;24.96
44213;BME280;29882;46.356;17.798;2022-07-22T12:14:45;99927.91;;;36.88;24.85
44213;BME280;29882;46.356;17.798;2022-07-22T12:17:14;99928.59;;;37.14;23.99
44213;BME280;29882;46.356;17.798;2022-07-22T12:19:42;99919.34;;;37.14;24.51
44213;BME280;29882;46.356;17.798;2022-07-22T12:22:21;99913.50;;;37.19;23.69
44213;BME280;29882;46.356;17.798;2022-07-22T12:25:00;99906.03;;;37.32;23.76
44213;BME280;29882;46.356;17.798;2022-07-22T12:27:28;99909.88;;;37.18;24.00
44213;BME280;29882;46.356;17.798;2022-07-22T12:29:56;99905.91;;;37.49;24.15
44213;BME280;29882;46.356;17.798;2022-07-22T12:42:41;99888.44;;;38.43;22.71
44213;BME280;29882;46.356;17.798;2022-07-22T12:45:11;99889.78;;;38.94;22.58
44213;BME280;29882;46.356;17.798;2022-07-22T12:47:42;99887.00;;;39.34;22.13
44213;BME280;29882;46.356;17.798;2022-07-22T12:50:31;99891.38;;;39.72;22.38
44213;BME280;29882;46.356;17.798;2022-07-22T12:53:02;99888.81;;;39.95;21.84
44213;BME280;29882;46.356;17.798;2022-07-22T12:58:12;99885.81;;;40.63;21.78
44213;BME280;29882;46.356;17.798;2022-07-22T13:00:42;99879.47;;;41.17;20.54
44213;BME280;29882;46.356;17.798;2022-07-22T13:03:10;99881.56;;;41.04;20.31
44213;BME280;29882;46.356;17.798;2022-07-22T13:05:37;99883.16;;;40.70;20.32
44213;BME280;29882;46.356;17.798;2022-07-22T13:08:04;99878.75;;;41.04;20.17
44213;BME280;29882;46.356;17.798;2022-07-22T13:10:35;99868.03;;;41.49;20.22
44213;BME280;29882;46.356;17.798;2022-07-22T13:13:05;99866.97;;;41.95;19.82
44213;BME280;29882;46.356;17.798;2022-07-22T13:15:32;99871.47;;;42.62;19.63
44213;BME280;29882;46.356;17.798;2022-07-22T13:17:59;99865.34;;;43.39;18.62
44213;BME280;29882;46.356;17.798;2022-07-22T13:20:26;99860.50;;;44.10;18.21
44213;BME280;29882;46.356;17.798;2022-07-22T13:22:54;99864.81;;;44.82;17.63
44213;BME280;29882;46.356;17.798;2022-07-22T13:25:21;99870.50;;;44.34;17.10
44213;BME280;29882;46.356;17.798;2022-07-22T13:27:48;99863.19;;;44.33;17.48
44213;BME280;29882;46.356;17.798;2022-07-22T13:30:15;99868.38;;;44.68;16.79
44213;BME280;29882;46.356;17.798;2022-07-22T13:32:43;99863.94;;;44.74;17.11
44213;BME280;29882;46.356;17.798;2022-07-22T13:35:15;99858.94;;;44.57;17.21
44213;BME280;29882;46.356;17.798;2022-07-22T13:37:43;99856.53;;;44.15;16.99
44213;BME280;29882;46.356;17.798;2022-07-22T13:40:11;99855.81;;;44.25;16.47
44213;BME280;29882;46.356;17.798;2022-07-22T13:42:38;99853.19;;;44.09;17.02
44213;BME280;29882;46.356;17.798;2022-07-22T13:45:06;99846.09;;;43.55;16.77
44213;BME280;29882;46.356;17.798;2022-07-22T13:47:36;99847.78;;;44.34;16.79
44213;BME280;29882;46.356;17.798;2022-07-22T13:50:03;99844.22;;;43.06;17.54
44213;BME280;29882;46.356;17.798;2022-07-22T13:52:31;99848.47;;;41.59;18.71
44213;BME280;29882;46.356;17.798;2022-07-22T13:54:58;99840.53;;;42.30;17.95
44213;BME280;29882;46.356;17.798;2022-07-22T13:57:25;99846.38;;;42.41;17.93
44213;BME280;29882;46.356;17.798;2022-07-22T13:59:53;99837.19;;;43.23;17.32
44213;BME280;29882;46.356;17.798;2022-07-22T14:02:20;99838.03;;;42.97;17.28
44213;BME280;29882;46.356;17.798;2022-07-22T14:04:47;99837.59;;;43.55;17.14
44213;BME280;29882;46.356;17.798;2022-07-22T14:07:14;99828.63;;;42.93;17.88
44213;BME280;29882;46.356;17.798;2022-07-22T14:09:41;99837.66;;;43.96;17.10
44213;BME280;29882;46.356;17.798;2022-07-22T14:12:08;99844.06;;;44.27;16.81
44213;BME280;29882;46.356;17.798;2022-07-22T14:14:37;99837.59;;;43.55;16.15
44213;BME280;29882;46.356;17.798;2022-07-22T14:17:04;99836.88;;;43.62;16.70
44213;BME280;29882;46.356;17.798;2022-07-22T14:19:31;99835.00;;;42.87;17.64
44213;BME280;29882;46.356;17.798;2022-07-22T14:21:58;99829.88;;;43.56;16.87
44213;BME280;29882;46.356;17.798;2022-07-22T14:24:26;99838.50;;;44.41;16.73
44213;BME280;29882;46.356;17.798;2022-07-22T14:26:53;99831.41;;;44.17;16.11
44213;BME280;29882;46.356;17.798;2022-07-22T14:29:20;99829.66;;;43.72;16.40
44213;BME280;29882;46.356;17.798;2022-07-22T14:31:49;99826.09;;;43.41;16.89
44213;BME280;29882;46.356;17.798;2022-07-22T14:34:16;99834.88;;;43.32;16.85
44213;BME280;29882;46.356;17.798;2022-07-22T14:36:44;99815.06;;;43.36;17.21
44213;BME280;29882;46.356;17.798;2022-07-22T14:39:12;99818.44;;;43.15;16.98
44213;BME280;29882;46.356;17.798;2022-07-22T14:41:39;99817.94;;;43.10;16.84
44213;BME280;29882;46.356;17.798;2022-07-22T14:44:06;99820.19;;;42.70;17.21
44213;BME280;29882;46.356;17.798;2022-07-22T14:46:33;99822.56;;;41.77;17.87
44213;BME280;29882;46.356;17.798;2022-07-22T14:49:00;99809.28;;;42.72;17.61
44213;BME280;29882;46.356;17.798;2022-07-22T14:51:27;99820.97;;;43.87;16.46
44213;BME280;29882;46.356;17.798;2022-07-22T14:53:54;99811.91;;;44.63;16.06
44213;BME280;29882;46.356;17.798;2022-07-22T14:56:22;99812.44;;;44.80;16.09
44213;BME280;29882;46.356;17.798;2022-07-22T14:58:49;99816.47;;;44.27;16.27
44213;BME280;29882;46.356;17.798;2022-07-22T15:01:16;99815.16;;;44.65;15.89
44213;BME280;29882;46.356;17.798;2022-07-22T15:03:47;99806.34;;;44.30;16.35
44213;BME280;29882;46.356;17.798;2022-07-22T15:06:15;99815.34;;;44.39;16.29
44213;BME280;29882;46.356;17.798;2022-07-22T15:08:42;99812.75;;;44.20;16.28
44213;BME280;29882;46.356;17.798;2022-07-22T15:11:09;99803.16;;;44.90;15.79
44213;BME280;29882;46.356;17.798;2022-07-22T15:13:36;99804.72;;;44.77;15.96
44213;BME280;29882;46.356;17.798;2022-07-22T15:16:03;99807.56;;;44.84;15.92
44213;BME280;29882;46.356;17.798;2022-07-22T15:18:30;99813.16;;;44.18;16.22
44213;BME280;29882;46.356;17.798;2022-07-22T15:20:57;99804.59;;;44.62;16.06
44213;BME280;29882;46.356;17.798;2022-07-22T15:23:25;99793.97;;;45.14;15.81
44213;BME280;29882;46.356;17.798;2022-07-22T15:26:00;99806.47;;;44.47;15.95
44213;BME280;29882;46.356;17.798;2022-07-22T15:28:27;99787.19;;;45.47;15.38
44213;BME280;29882;46.356;17.798;2022-07-22T15:31:00;99796.69;;;46.08;14.79
44213;BME280;29882;46.356;17.798;2022-07-22T15:33:27;99782.06;;;46.56;14.64
44213;BME280;29882;46.356;17.798;2022-07-22T15:36:04;99783.69;;;46.29;15.70
44213;BME280;29882;46.356;17.798;2022-07-22T15:38:33;99774.69;;;45.98;14.60
44213;BME280;29882;46.356;17.798;2022-07-22T15:41:00;99780.59;;;45.22;15.47
44213;BME280;29882;46.356;17.798;2022-07-22T15:43:28;99781.25;;;44.35;16.01
44213;BME280;29882;46.356;17.798;2022-07-22T15:45:55;99778.09;;;44.03;16.23
44213;BME280;29882;46.356;17.798;2022-07-22T15:48:22;99776.59;;;44.64;16.06
44213;BME280;29882;46.356;17.798;2022-07-22T15:50:50;99776.03;;;44.41;16.17
44213;BME280;29882;46.356;17.798;2022-07-22T15:53:16;99765.03;;;44.98;15.85
44213;BME280;29882;46.356;17.798;2022-07-22T15:55:47;99767.56;;;45.14;16.09
44213;BME280;29882;46.356;17.798;2022-07-22T15:58:14;99770.81;;;45.16;15.76
44213;BME280;29882;46.356;17.798;2022-07-22T16:01:00;99765.03;;;44.98;15.75
44213;BME280;29882;46.356;17.798;2022-07-22T16:03:27;99755.34;;;45.10;16.11
44213;BME280;29882;46.356;17.798;2022-07-22T16:05:55;99752.41;;;44.92;16.41
44213;BME280;29882;46.356;17.798;2022-07-22T16:08:22;99762.44;;;44.71;16.00
44213;BME280;29882;46.356;17.798;2022-07-22T16:10:49;99757.44;;;44.51;16.45
44213;BME280;29882;46.356;17.798;2022-07-22T16:13:17;99752.38;;;44.88;16.52
44213;BME280;29882;46.356;17.798;2022-07-22T16:15:45;99751.16;;;44.86;16.21
44213;BME280;29882;46.356;17.798;2022-07-22T16:18:12;99752.44;;;44.95;16.62
44213;BME280;29882;46.356;17.798;2022-07-22T16:20:40;99748.06;;;45.19;16.06
44213;BME280;29882;46.356;17.798;2022-07-22T16:23:07;99750.53;;;45.21;16.27
44213;BME280;29882;46.356;17.798;2022-07-22T16:25:35;99747.19;;;45.01;16.30
44213;BME280;29882;46.356;17.798;2022-07-22T16:28:02;99755.19;;;44.81;16.46
44213;BME280;29882;46.356;17.798;2022-07-22T16:30:30;99756.22;;;44.52;16.47
44213;BME280;29882;46.356;17.798;2022-07-22T16:32:57;99758.47;;;44.28;16.79
44213;BME280;29882;46.356;17.798;2022-07-22T16:35:24;99749.81;;;43.73;17.26
44213;BME280;29882;46.356;17.798;2022-07-22T16:37:51;99746.78;;;43.93;17.15
44213;BME280;29882;46.356;17.798;2022-07-22T16:40:27;99753.00;;;43.31;17.65
44213;BME280;29882;46.356;17.798;2022-07-22T16:42:54;99742.50;;;43.69;17.55
44213;BME280;29882;46.356;17.798;2022-07-22T16:45:21;99748.00;;;43.21;18.23
44213;BME280;29882;46.356;17.798;2022-07-22T16:47:53;99745.53;;;43.16;18.24
44213;BME280;29882;46.356;17.798;2022-07-22T16:50:21;99741.75;;;43.38;18.21
44213;BME280;29882;46.356;17.798;2022-07-22T16:52:51;99748.28;;;42.78;18.50
44213;BME280;29882;46.356;17.798;2022-07-22T16:55:18;99738.59;;;42.83;19.05
44213;BME280;29882;46.356;17.798;2022-07-22T16:57:46;99743.44;;;42.79;18.92
44213;BME280;29882;46.356;17.798;2022-07-22T17:00:13;99745.13;;;41.85;19.80
44213;BME280;29882;46.356;17.798;2022-07-22T17:02:41;99739.59;;;41.92;19.84
44213;BME280;29882;46.356;17.798;2022-07-22T17:05:08;99749.31;;;41.94;19.74
44213;BME280;29882;46.356;17.798;2022-07-22T17:07:35;99734.13;;;41.60;19.90
44213;BME280;29882;46.356;17.798;2022-07-22T17:10:04;99744.50;;;41.72;19.62
44213;BME280;29882;46.356;17.798;2022-07-22T17:12:31;99743.44;;;41.80;20.53
44213;BME280;29882;46.356;17.798;2022-07-22T17:14:59;99746.88;;;41.93;20.34
44213;BME280;29882;46.356;17.798;2022-07-22T17:17:26;99750.91;;;41.92;20.64
44213;BME280;29882;46.356;17.798;2022-07-22T17:19:53;99741.25;;;41.70;20.67
44213;BME280;29882;46.356;17.798;2022-07-22T17:22:20;99746.19;;;41.77;20.63
44213;BME280;29882;46.356;17.798;2022-07-22T17:24:47;99740.91;;;41.75;20.46
44213;BME280;29882;46.356;17.798;2022-07-22T17:27:14;99744.72;;;41.63;21.05
44213;BME280;29882;46.356;17.798;2022-07-22T17:29:41;99743.81;;;41.36;20.82
44213;BME280;29882;46.356;17.798;2022-07-22T17:32:08;99745.25;;;41.50;20.59
44213;BME280;29882;46.356;17.798;2022-07-22T17:34:35;99748.97;;;41.15;20.99
44213;BME280;29882;46.356;17.798;2022-07-22T17:37:02;99742.09;;;40.77;21.42
44213;BME280;29882;46.356;17.798;2022-07-22T17:39:29;99752.72;;;40.65;21.67
44213;BME280;29882;46.356;17.798;2022-07-22T17:42:01;99752.41;;;40.19;22.00
44213;BME280;29882;46.356;17.798;2022-07-22T17:44:28;99755.28;;;39.75;22.97
44213;BME280;29882;46.356;17.798;2022-07-22T17:46:55;99753.28;;;39.32;23.47
44213;BME280;29882;46.356;17.798;2022-07-22T17:49:22;99757.56;;;39.13;23.68
44213;BME280;29882;46.356;17.798;2022-07-22T17:51:50;99760.88;;;38.91;24.20
44213;BME280;29882;46.356;17.798;2022-07-22T17:54:22;99760.25;;;38.33;24.97
44213;BME280;29882;46.356;17.798;2022-07-22T17:56:49;99754.03;;;38.03;25.55
44213;BME280;29882;46.356;17.798;2022-07-22T17:59:16;99756.97;;;37.73;26.27
44213;BME280;29882;46.356;17.798;2022-07-22T18:01:43;99757.31;;;37.60;26.54
44213;BME280;29882;46.356;17.798;2022-07-22T18:04:11;99743.34;;;37.51;26.90
44213;BME280;29882;46.356;17.798;2022-07-22T18:06:38;99751.81;;;37.09;27.91
44213;BME280;29882;46.356;17.798;2022-07-22T18:09:05;99763.28;;;37.04;27.97
44213;BME280;29882;46.356;17.798;2022-07-22T18:11:32;99754.88;;;37.04;28.05
44213;BME280;29882;46.356;17.798;2022-07-22T18:13:59;99755.38;;;36.77;28.50
44213;BME280;29882;46.356;17.798;2022-07-22T18:16:27;99754.22;;;36.78;29.12
44213;BME280;29882;46.356;17.798;2022-07-22T18:18:55;99757.16;;;36.60;30.12
44213;BME280;29882;46.356;17.798;2022-07-22T18:21:22;99755.16;;;36.31;30.47
44213;BME280;29882;46.356;17.798;2022-07-22T18:23:50;99751.44;;;36.10;31.75
44213;BME280;29882;46.356;17.798;2022-07-22T18:26:17;99754.53;;;35.79;32.10
44213;BME280;29882;46.356;17.798;2022-07-22T18:28:46;99752.75;;;35.57;33.59
44213;BME280;29882;46.356;17.798;2022-07-22T18:31:13;99765.34;;;35.16;34.90
44213;BME280;29882;46.356;17.798;2022-07-22T18:33:40;99756.59;;;34.92;35.33
44213;BME280;29882;46.356;17.798;2022-07-22T18:36:08;99770.75;;;34.78;35.68
44213;BME280;29882;46.356;17.798;2022-07-22T18:38:35;99769.22;;;34.63;36.50
44213;BME280;29882;46.356;17.798;2022-07-22T18:41:02;99767.22;;;34.55;36.61
44213;BME280;29882;46.356;17.798;2022-07-22T18:43:32;99764.78;;;34.23;37.47
44213;BME280;29882;46.356;17.798;2022-07-22T18:45:59;99768.09;;;34.16;37.69
44213;BME280;29882;46.356;17.798;2022-07-22T18:48:27;99778.03;;;34.00;38.57
44213;BME280;29882;46.356;17.798;2022-07-22T18:50:54;99782.19;;;33.80;39.23
44213;BME280;29882;46.356;17.798;2022-07-22T18:53:21;99779.75;;;33.56;39.24
44213;BME280;29882;46.356;17.798;2022-07-22T18:55:48;99783.31;;;33.34;39.74
44213;BME280;29882;46.356;17.798;2022-07-22T18:58:16;99792.13;;;33.05;40.29
44213;BME280;29882;46.356;17.798;2022-07-22T19:00:43;99788.75;;;32.94;40.60
44213;BME280;29882;46.356;17.798;2022-07-22T19:03:10;99788.69;;;32.72;41.33
44213;BME280;29882;46.356;17.798;2022-07-22T19:05:37;99788.56;;;32.77;41.35
44213;BME280;29882;46.356;17.798;2022-07-22T19:08:04;99798.94;;;32.49;41.79
44213;BME280;29882;46.356;17.798;2022-07-22T19:10:31;99799.47;;;32.37;42.23
44213;BME280;29882;46.356;17.798;2022-07-22T19:12:59;99796.84;;;32.13;42.86
44213;BME280;29882;46.356;17.798;2022-07-22T19:15:26;99802.94;;;32.15;42.73
44213;BME280;29882;46.356;17.798;2022-07-22T19:17:53;99799.31;;;32.15;43.19
44213;BME280;29882;46.356;17.798;2022-07-22T19:20:20;99801.38;;;31.82;43.74
44213;BME280;29882;46.356;17.798;2022-07-22T19:22:48;99802.47;;;31.81;44.01
44213;BME280;29882;46.356;17.798;2022-07-22T19:25:15;99805.72;;;31.69;44.41
44213;BME280;29882;46.356;17.798;2022-07-22T19:27:42;99803.88;;;31.64;44.70
44213;BME280;29882;46.356;17.798;2022-07-22T19:30:09;99817.13;;;31.54;45.36
44213;BME280;29882;46.356;17.798;2022-07-22T19:32:37;99819.78;;;31.45;45.65
44213;BME280;29882;46.356;17.798;2022-07-22T19:35:04;99817.63;;;31.23;46.29
44213;BME280;29882;46.356;17.798;2022-07-22T19:37:31;99814.75;;;31.10;46.78
44213;BME280;29882;46.356;17.798;2022-07-22T19:39:58;99815.19;;;30.98;46.87
44213;BME280;29882;46.356;17.798;2022-07-22T19:42:25;99814.16;;;30.75;46.96
44213;BME280;29882;46.356;17.798;2022-07-22T19:44:52;99815.25;;;30.50;47.22
44213;BME280;29882;46.356;17.798;2022-07-22T19:47:19;99814.25;;;30.41;47.42
44213;BME280;29882;46.356;17.798;2022-07-22T19:49:51;99819.13;;;30.30;47.58
44213;BME280;29882;46.356;17.798;2022-07-22T19:52:20;99815.38;;;30.16;47.78
44213;BME280;29882;46.356;17.798;2022-07-22T19:54:47;99812.91;;;30.14;47.45
44213;BME280;29882;46.356;17.798;2022-07-22T19:57:14;99805.28;;;29.96;47.89
44213;BME280;29882;46.356;17.798;2022-07-22T19:59:41;99816.53;;;29.81;48.37
44213;BME280;29882;46.356;17.798;2022-07-22T20:02:08;99816.97;;;29.64;48.63
44213;BME280;29882;46.356;17.798;2022-07-22T20:04:35;99818.50;;;29.51;48.81
44213;BME280;29882;46.356;17.798;2022-07-22T20:07:02;99819.81;;;29.59;49.08
44213;BME280;29882;46.356;17.798;2022-07-22T20:09:30;99823.81;;;29.43;49.24
44213;BME280;29882;46.356;17.798;2022-07-22T20:11:56;99828.22;;;29.49;49.22
44213;BME280;29882;46.356;17.798;2022-07-22T20:14:24;99826.66;;;29.32;49.49
44213;BME280;29882;46.356;17.798;2022-07-22T20:16:51;99826.16;;;29.25;49.84
44213;BME280;29882;46.356;17.798;2022-07-22T20:19:18;99829.31;;;29.08;50.94
44213;BME280;29882;46.356;17.798;2022-07-22T20:21:45;99824.38;;;29.00;50.92
44213;BME280;29882;46.356;17.798;2022-07-22T20:24:13;99820.81;;;28.95;51.11
44213;BME280;29882;46.356;17.798;2022-07-22T20:26:40;99826.13;;;28.81;51.44
44213;BME280;29882;46.356;17.798;2022-07-22T20:29:08;99832.84;;;28.70;51.42
44213;BME280;29882;46.356;17.798;2022-07-22T20:31:35;99831.78;;;28.55;52.04
44213;BME280;29882;46.356;17.798;2022-07-22T20:34:05;99827.34;;;28.60;51.37
44213;BME280;29882;46.356;17.798;2022-07-22T20:36:32;99823.00;;;28.33;51.70
44213;BME280;29882;46.356;17.798;2022-07-22T20:38:59;99820.78;;;28.30;51.81
44213;BME280;29882;46.356;17.798;2022-07-22T20:41:27;99827.97;;;28.26;52.39
44213;BME280;29882;46.356;17.798;2022-07-22T20:43:54;99829.13;;;28.10;52.39
44213;BME280;29882;46.356;17.798;2022-07-22T20:46:21;99832.75;;;28.05;52.56
44213;BME280;29882;46.356;17.798;2022-07-22T20:48:48;99834.72;;;27.84;53.50
44213;BME280;29882;46.356;17.798;2022-07-22T20:51:15;99834.19;;;27.77;54.18
44213;BME280;29882;46.356;17.798;2022-07-22T20:53:42;99843.88;;;27.80;53.86
44213;BME280;29882;46.356;17.798;2022-07-22T20:56:09;99835.28;;;27.66;54.09
44213;BME280;29882;46.356;17.798;2022-07-22T20:58:43;99838.56;;;27.48;54.75
44213;BME280;29882;46.356;17.798;2022-07-22T21:01:11;99844.38;;;27.56;53.83
44213;BME280;29882;46.356;17.798;2022-07-22T21:03:39;99848.00;;;27.52;53.80
44213;BME280;29882;46.356;17.798;2022-07-22T21:06:06;99848.81;;;27.52;54.07
44213;BME280;29882;46.356;17.798;2022-07-22T21:08:33;99840.81;;;27.61;53.82
44213;BME280;29882;46.356;17.798;2022-07-22T21:11:00;99846.34;;;27.51;53.52
44213;BME280;29882;46.356;17.798;2022-07-22T21:13:27;99846.59;;;27.64;53.50
44213;BME280;29882;46.356;17.798;2022-07-22T21:15:54;99853.28;;;27.74;53.21
44213;BME280;29882;46.356;17.798;2022-07-22T21:18:21;99854.63;;;27.61;54.02
44213;BME280;29882;46.356;17.798;2022-07-22T21:20:48;99852.69;;;27.61;54.33
44213;BME280;29882;46.356;17.798;2022-07-22T21:23:15;99852.69;;;27.41;55.78
44213;BME280;29882;46.356;17.798;2022-07-22T21:25:42;99854.06;;;27.43;56.00
44213;BME280;29882;46.356;17.798;2022-07-22T21:28:09;99858.75;;;27.38;56.47
44213;BME280;29882;46.356;17.798;2022-07-22T21:30:40;99846.03;;;27.37;56.33
44213;BME280;29882;46.356;17.798;2022-07-22T21:33:07;99851.84;;;27.35;56.65
44213;BME280;29882;46.356;17.798;2022-07-22T21:35:35;99863.19;;;27.34;56.74
44213;BME280;29882;46.356;17.798;2022-07-22T21:38:02;99866.22;;;27.27;56.53
44213;BME280;29882;46.356;17.798;2022-07-22T21:40:29;99864.56;;;27.16;56.67
44213;BME280;29882;46.356;17.798;2022-07-22T21:42:59;99874.41;;;26.92;57.14
44213;BME280;29882;46.356;17.798;2022-07-22T21:45:28;99862.75;;;26.79;57.77
44213;BME280;29882;46.356;17.798;2022-07-22T21:47:55;99868.25;;;26.74;57.52
44213;BME280;29882;46.356;17.798;2022-07-22T21:50:23;99877.53;;;26.48;58.46
44213;BME280;29882;46.356;17.798;2022-07-22T21:52:50;99878.13;;;26.55;58.69
44213;BME280;29882;46.356;17.798;2022-07-22T21:55:17;99875.13;;;26.62;58.87
44213;BME280;29882;46.356;17.798;2022-07-22T21:57:44;99885.25;;;26.46;59.83
44213;BME280;29882;46.356;17.798;2022-07-22T22:00:12;99880.84;;;26.50;59.69
44213;BME280;29882;46.356;17.798;2022-07-22T22:02:40;99876.69;;;26.47;60.29
44213;BME280;29882;46.356;17.798;2022-07-22T22:05:08;99878.34;;;26.48;60.23
44213;BME280;29882;46.356;17.798;2022-07-22T22:07:35;99878.06;;;26.45;60.54
44213;BME280;29882;46.356;17.798;2022-07-22T22:10:03;99879.13;;;26.39;60.85
44213;BME280;29882;46.356;17.798;2022-07-22T22:12:30;99881.31;;;26.37;61.16
44213;BME280;29882;46.356;17.798;2022-07-22T22:14:57;99876.53;;;26.22;61.74
44213;BME280;29882;46.356;17.798;2022-07-22T22:17:25;99874.63;;;26.27;61.49
44213;BME280;29882;46.356;17.798;2022-07-22T22:19:52;99883.75;;;26.28;61.82
44213;BME280;29882;46.356;17.798;2022-07-22T22:22:19;99879.72;;;26.03;62.43
44213;BME280;29882;46.356;17.798;2022-07-22T22:24:47;99888.22;;;25.97;62.81
44213;BME280;29882;46.356;17.798;2022-07-22T22:27:14;99878.41;;;25.79;62.83
44213;BME280;29882;46.356;17.798;2022-07-22T22:29:41;99883.09;;;25.73;62.49
44213;BME280;29882;46.356;17.798;2022-07-22T22:32:08;99876.66;;;25.68;62.80
44213;BME280;29882;46.356;17.798;2022-07-22T22:34:35;99877.13;;;25.60;63.38
44213;BME280;29882;46.356;17.798;2022-07-22T22:37:04;99862.41;;;25.49;63.63
44213;BME280;29882;46.356;17.798;2022-07-22T22:39:32;99871.59;;;25.60;63.47
44213;BME280;29882;46.356;17.798;2022-07-22T22:41:59;99868.41;;;25.41;64.02
44213;BME280;29882;46.356;17.798;2022-07-22T22:44:26;99868.09;;;25.37;63.99
44213;BME280;29882;46.356;17.798;2022-07-22T22:46:53;99856.44;;;25.30;64.10
44213;BME280;29882;46.356;17.798;2022-07-22T22:49:21;99859.41;;;25.24;64.14
44213;BME280;29882;46.356;17.798;2022-07-22T22:51:48;99854.69;;;25.19;64.40
44213;BME280;29882;46.356;17.798;2022-07-22T22:54:15;99856.09;;;25.22;64.04
44213;BME280;29882;46.356;17.798;2022-07-22T22:56:42;99852.56;;;25.26;63.45
44213;BME280;29882;46.356;17.798;2022-07-22T22:59:09;99849.47;;;25.23;64.21
44213;BME280;29882;46.356;17.798;2022-07-22T23:01:37;99854.97;;;25.17;64.65
44213;BME280;29882;46.356;17.798;2022-07-22T23:04:04;99853.94;;;25.02;65.53
44213;BME280;29882;46.356;17.798;2022-07-22T23:06:32;99858.28;;;24.98;65.62
44213;BME280;29882;46.356;17.798;2022-07-22T23:08:59;99849.63;;;24.89;66.14
44213;BME280;29882;46.356;17.798;2022-07-22T23:11:27;99854.59;;;24.87;66.78
44213;BME280;29882;46.356;17.798;2022-07-22T23:13:56;99848.59;;;24.95;67.34
44213;BME280;29882;46.356;17.798;2022-07-22T23:16:23;99847.41;;;25.08;67.09
44213;BME280;29882;46.356;17.798;2022-07-22T23:18:50;99844.91;;;25.06;67.45
44213;BME280;29882;46.356;17.798;2022-07-22T23:21:18;99842.13;;;25.06;67.89
44213;BME280;29882;46.356;17.798;2022-07-22T23:23:45;99840.59;;;24.94;68.43
44213;BME280;29882;46.356;17.798;2022-07-22T23:26:12;99854.69;;;24.97;68.35
44213;BME280;29882;46.356;17.798;2022-07-22T23:28:39;99839.13;;;24.86;68.35
44213;BME280;29882;46.356;17.798;2022-07-22T23:31:06;99846.78;;;24.79;68.48
44213;BME280;29882;46.356;17.798;2022-07-22T23:33:33;99849.53;;;24.57;69.62
44213;BME280;29882;46.356;17.798;2022-07-22T23:36:00;99855.75;;;24.69;68.87
44213;BME280;29882;46.356;17.798;2022-07-22T23:38:27;99853.81;;;24.70;68.47
44213;BME280;29882;46.356;17.798;2022-07-22T23:40:54;99842.09;;;24.79;68.34
44213;BME280;29882;46.356;17.798;2022-07-22T23:43:29;99838.22;;;24.53;69.46
44213;BME280;29882;46.356;17.798;2022-07-22T23:45:56;99838.72;;;24.50;70.12
44213;BME280;29882;46.356;17.798;2022-07-22T23:48:24;99829.06;;;24.48;70.74
44213;BME280;29882;46.356;17.798;2022-07-22T23:50:51;99844.94;;;24.41;71.29
44213;BME280;29882;46.356;17.798;2022-07-22T23:53:18;99836.47;;;24.47;70.30
44213;BME280;29882;46.356;17.798;2022-07-22T23:55:45;99837.66;;;24.34;70.80
44213;BME280;29882;46.356;17.798;2022-07-22T23:58:12;99836.53;;;24.14;72.13
